Terminal Aerodrome Forecast
Issued by NWS

Home | Current Version | Previous Version | Text Only | Print | Product List | Glossary On
Versions: 1 2 3 4 5 6 7 8 9 10 11 12 13 14 15
000
FTUS45 KFGZ 061207 AAA
TAFSEZ
TAF AMD
KSEZ 061207Z 0612/0712 18007KT P6SM VCSH BKN090
     FM061600 19015G25KT P6SM SCT070 OVC090
     FM062000 19017G27KT P6SM SCT060 BKN090
     FM070100 15007KT P6SM SCT060 BKN090
      TEMPO 0702/0706 5SM -SHRA BKN040
     FM070600 19008KT P6SM -SHRA BKN040
      AMD NOT SKED=

USA.gov is the U.S. government's official web portal to all federal, state and local government web resources and services.